Weather reports worldwide

Advertisment
Feldberg/Schwarzwald, Germany (10908): temperature & dewpoint: 11.01.2021 22:00:00 - 17.01.2021 22:00:00 (CET)Feldberg/Schwarzwald, Germany (10908): temperature 5cm & temperature -5cm: 11.01.2021 22:00:00 - 17.01.2021 22:00:00 (CET)Feldberg/Schwarzwald, Germany (10908): temperature -20cm & temperature -100cm: 11.01.2021 22:00:00 - 17.01.2021 22:00:00 (CET)Feldberg/Schwarzwald, Germany (10908): wind speed & gusts: 11.01.2021 22:00:00 - 17.01.2021 22:00:00 (CET)Feldberg/Schwarzwald, Germany (10908): wind direction: 11.01.2021 22:00:00 - 17.01.2021 22:00:00 (CET)Feldberg/Schwarzwald, Germany (10908): visibility: 11.01.2021 22:00:00 - 17.01.2021 22:00:00 (CET)Feldberg/Schwarzwald, Germany (10908): sunshine duration: 11.01.2021 22:00:00 - 17.01.2021 22:00:00 (CET)Feldberg/Schwarzwald, Germany (10908): precipitation: 11.01.2021 22:00:00 - 17.01.2021 22:00:00 (CET)
Date & Time tt [°C] td [°C] tt 5cm [°C] tt -5cm [°C] tt -20cm [°C] tt -100cm [°C] ff [km/h] ff [kn] fx [km/h] fx [kn] dd vv [km] sd [min] rr [mm]
17.01.2021 22:00:00 -5,3 -6,0 -0,2 0,1 0,6 2,7 27 14 37 20 W - 0 0,1
17.01.2021 21:00:00 -5,1 -5,6 -0,2 0,1 0,6 2,7 21 11 34 18 NW - 0 0,0
17.01.2021 20:00:00 -5,1 -5,7 -0,2 0,1 0,6 2,7 28 15 37 20 NW 0,1 0 0,1
17.01.2021 19:00:00 -5,2 -5,8 -0,2 0,1 0,6 2,7 27 14 39 21 NW 0,1 0 0,6
17.01.2021 18:00:00 -5,1 -5,7 -0,2 0,1 0,6 2,7 29 15 41 22 NW 0,1 0 0,1
17.01.2021 17:00:00 -5,1 -5,8 -0,2 0,1 0,6 2,7 32 17 42 23 NNW 0,1 0 0,1
17.01.2021 16:00:00 -4,9 -5,5 -0,2 0,1 0,6 2,7 29 16 38 20 NW 0,1 0 0,4
17.01.2021 15:00:00 -4,8 -5,3 -0,2 0,1 0,6 2,7 23 13 46 25 WNW 0,1 0 0,1
17.01.2021 14:00:00 -4,8 -5,3 -0,2 0,1 0,6 2,7 24 13 41 22 WNW 0,1 0 0,0
17.01.2021 13:00:00 -4,7 -5,2 -0,2 0,1 0,6 2,7 31 17 45 24 W 0,1 0 0,0
17.01.2021 12:00:00 -5,0 -5,6 -0,2 0,1 0,6 2,7 36 19 48 26 W 0,1 0 0,0
17.01.2021 11:00:00 -5,2 -5,7 -0,2 0,1 0,6 2,7 27 15 44 24 W 0,1 0 0,0
17.01.2021 10:00:00 -5,6 -6,2 -0,2 0,1 0,6 2,7 29 16 48 26 WNW 0,1 0 0,0
17.01.2021 09:00:00 -5,9 -6,5 -0,2 0,1 0,6 2,7 36 20 58 32 W 0,1 0 0,0
17.01.2021 08:00:00 -6,4 -7,1 -0,2 0,1 0,6 2,7 31 17 49 27 W 0,1 0 0,0
17.01.2021 07:00:00 -6,4 -7,2 -0,2 0,1 0,6 2,7 42 23 63 34 WSW 0,3 0 0,0
17.01.2021 06:00:00 -6,3 -7,1 -0,2 0,1 0,6 2,7 48 26 64 35 WSW 0,1 0 0,0
17.01.2021 05:00:00 -6,1 -6,8 -0,2 0,1 0,6 2,7 42 23 63 34 SW 0,2 0 0,0
17.01.2021 04:00:00 -6,2 -6,9 -0,2 0,1 0,6 2,7 48 26 77 42 WSW 0,2 0 0,0
17.01.2021 03:00:00 -6,2 -6,9 -0,2 0,1 0,6 2,7 53 28 76 41 WSW 0,1 0 0,1
17.01.2021 02:00:00 -6,1 -7,0 -0,2 0,1 0,6 2,7 56 30 74 40 WSW 0,1 0 0,0
17.01.2021 01:00:00 -6,1 -7,0 -0,2 0,1 0,6 2,7 61 33 74 40 WSW 0,7 0 0,0
17.01.2021 00:00:00 -7,2 -8,1 -0,2 0,1 0,6 2,7 61 33 72 39 SW 0,5 0 0,1
16.01.2021 23:00:00 -7,4 -8,3 -0,2 0,1 0,6 2,7 60 32 72 39 SSW 0,1 0 0,0
16.01.2021 22:00:00 -8,2 -9,0 -0,2 0,1 0,6 2,7 54 29 66 36 SW 0,3 0 0,0
16.01.2021 21:00:00 -10,1 -11,8 -0,2 0,1 0,6 2,7 40 22 48 26 SSW 58 0 0,0
16.01.2021 20:00:00 -10,4 -11,9 -0,2 0,1 0,6 2,7 29 16 39 21 SSW 50 0 0,0
16.01.2021 19:00:00 -10,3 -11,8 -0,2 0,1 0,6 2,7 29 16 40 22 SW 66 0 0,0
16.01.2021 18:00:00 -10,0 -11,5 -0,2 0,1 0,6 2,7 27 15 36 19 SSW 49 0 0,0
16.01.2021 17:00:00 -9,7 -11,2 -0,3 0,1 0,6 2,7 27 15 34 19 SW 72 0 0,0
16.01.2021 16:00:00 -8,9 -10,1 -0,3 0,1 0,6 2,7 18 10 25 14 SW 66 0 0,0
16.01.2021 15:00:00 -8,5 -10,0 -0,3 0,1 0,6 2,7 22 12 26 14 SSW 0,2 12 0,0
16.01.2021 14:00:00 -6,4 -7,1 -0,3 0,1 0,6 2,7 18 10 26 14 SW 57 57 0,0
16.01.2021 13:00:00 -6,5 -6,9 -0,3 0,1 0,6 2,7 16 9 21 11 SSW 47 60 0,0
16.01.2021 12:00:00 -7,4 -7,7 -0,3 0,1 0,6 2,7 12 7 16 9 S 67 60 0,0
16.01.2021 11:00:00 -8,5 -8,6 -0,3 0,1 0,6 2,7 8 5 11 6 S 49 60 0,0
16.01.2021 10:00:00 -10,2 -11,0 -0,3 0,1 0,6 2,7 7 4 10 5 S 65 60 0,0
16.01.2021 09:00:00 -11,1 -12,4 -0,3 0,1 0,6 2,7 8 5 9 5 SSW 61 22 0,0
16.01.2021 08:00:00 -10,9 -12,2 -0,3 0,1 0,6 2,7 2 1 6 3 ENE 62 0 0,0
16.01.2021 07:00:00 -10,6 -12,0 -0,3 0,1 0,6 2,7 7 4 11 6 ENE 59 0 0,0
16.01.2021 06:00:00 -10,5 -11,9 -0,3 0,1 0,6 2,7 9 5 15 8 ENE 66 0 0,0
16.01.2021 05:00:00 -10,3 -11,7 -0,3 0,1 0,6 2,7 8 5 23 12 ENE 67 0 0,0
16.01.2021 04:00:00 -10,1 -11,6 -0,3 0,1 0,6 2,7 16 8 20 11 ENE 67 0 0,0
16.01.2021 03:00:00 -10,2 -11,5 -0,3 0,1 0,6 2,7 15 8 18 10 ENE 75 0 0,0
16.01.2021 02:00:00 -10,2 -11,4 -0,3 0,1 0,6 2,7 15 8 24 13 ENE 70 0 0,0
16.01.2021 01:00:00 -10,2 -11,4 -0,3 0,1 0,6 2,7 23 12 37 20 E 74 0 0,0
16.01.2021 00:00:00 -10,3 -11,5 -0,3 0,1 0,6 2,7 30 16 38 21 E 0,1 0 0,0
15.01.2021 23:00:00 -10,1 -11,4 -0,3 0,1 0,6 2,7 34 18 42 23 E 0,3 0 0,0
15.01.2021 22:00:00 -10,2 -11,5 -0,3 0,1 0,6 2,7 37 20 45 25 E 0,3 0 0,0
15.01.2021 21:00:00 -10,1 -11,4 -0,3 0,1 0,6 2,7 36 19 42 23 E 15 0 0,0
15.01.2021 20:00:00 -10,1 -11,5 -0,3 0,1 0,6 2,7 34 18 42 23 E 15 0 0,0
15.01.2021 19:00:00 -9,8 -11,1 -0,3 0,1 0,6 2,7 35 19 48 26 E 45 0 0,0
15.01.2021 18:00:00 -9,6 -11,0 -0,3 0,1 0,6 2,7 32 17 41 22 E 41 0 0,0
15.01.2021 17:00:00 -7,7 -9,2 -0,3 0,1 0,6 2,7 24 13 33 18 ESE 31 0 0,0
15.01.2021 16:00:00 -6,5 -7,4 -0,3 0,1 0,6 2,7 10 5 14 8 E 0,1 9 0,0
15.01.2021 15:00:00 -5,3 -5,5 -0,3 0,1 0,6 2,7 3 1 9 5 NNW 0,6 23 0,0
15.01.2021 14:00:00 -5,9 -6,5 -0,3 0,1 0,6 2,7 9 5 13 7 NW 13 27 0,0
15.01.2021 13:00:00 -6,3 -6,6 -0,3 0,1 0,6 2,7 4 2 14 7 WNW 0,1 56 0,0
15.01.2021 12:00:00 -7,6 -8,5 -0,3 0,1 0,6 2,7 5 3 31 17 ENE 44 9 0,0
15.01.2021 11:00:00 -8,2 -9,3 -0,4 0,1 0,6 2,7 30 16 39 21 ESE 1,5 0 0,0
15.01.2021 10:00:00 -7,2 -8,3 -0,4 0,1 0,6 2,7 36 19 47 26 E 0,9 0 0,0
15.01.2021 09:00:00 -6,9 -7,9 -0,4 0,1 0,6 2,7 40 22 47 25 E 0,9 0 0,1
15.01.2021 08:00:00 -6,4 -7,3 -0,4 0,1 0,6 2,7 40 22 46 25 E 0,5 0 0,1
15.01.2021 07:00:00 -6,4 -7,4 -0,4 0,1 0,6 2,7 34 19 48 26 E 1,1 0 0,3
15.01.2021 06:00:00 -5,6 -6,4 -0,4 0,1 0,6 2,7 24 13 39 21 ESE 0,6 0 0,4
15.01.2021 05:00:00 -5,3 -6,3 -0,4 0,1 0,6 2,7 27 14 37 20 ESE 0,5 0 0,9
15.01.2021 04:00:00 -3,0 -3,3 -0,4 0,1 0,6 2,7 16 9 29 16 WSW 0,5 0 0,4
15.01.2021 03:00:00 -3,1 -3,3 -0,4 0,1 0,6 2,7 22 12 41 22 WSW 0,1 0 0,0
15.01.2021 02:00:00 -3,3 -3,6 -0,4 0,1 0,6 2,7 22 12 44 24 SW 0,1 0 0,2
15.01.2021 01:00:00 -3,6 -3,8 -0,4 0,1 0,6 2,7 23 12 44 24 SSW 0,3 0 0,5
15.01.2021 00:00:00 -4,0 -4,2 -0,4 0,1 0,6 2,7 23 12 45 24 SSW 1,3 0 1,0
14.01.2021 23:00:00 -4,8 -5,3 -0,4 0,1 0,6 2,7 28 15 42 23 S 0,3 0 0,5
14.01.2021 22:00:00 -4,9 -5,4 -0,4 0,1 0,6 2,7 35 19 37 20 SSW 0,2 0 0,4
14.01.2021 21:00:00 -5,4 -6,0 -0,4 0,1 0,6 2,7 29 16 34 18 S 0,2 0 0,5
14.01.2021 20:00:00 -5,9 -6,7 -0,4 0,1 0,6 2,7 29 16 43 23 S 0,3 0 0,8
14.01.2021 19:00:00 -5,8 -6,6 -0,4 0,1 0,6 2,7 29 16 36 19 S 0,4 0 1,1
14.01.2021 18:00:00 -5,7 -6,5 -0,4 0,1 0,6 2,7 23 12 30 16 S 0,6 0 0,9
14.01.2021 17:00:00 -5,6 -6,4 -0,5 0,1 0,6 2,7 24 13 31 17 SSE 1,2 0 0,8
14.01.2021 16:00:00 -5,5 -6,2 -0,5 0,1 0,6 2,7 24 13 30 16 SSE 1,2 0 0,6
14.01.2021 15:00:00 -5,3 -6,1 -0,5 0,1 0,6 2,7 23 12 33 18 SSE 1,5 0 0,8
14.01.2021 14:00:00 -4,6 -5,4 -0,5 0,1 0,6 2,7 22 12 27 14 SSE 1,8 0 1,9
14.01.2021 13:00:00 -4,0 -4,6 -0,5 0,1 0,6 2,7 14 7 16 9 SSE 0,8 0 1,4
14.01.2021 12:00:00 -3,8 -4,1 -0,5 0,1 0,6 2,7 4 2 16 9 SSW 0,8 0 1,4
14.01.2021 11:00:00 -4,1 -4,5 -0,5 0,1 0,6 2,7 11 6 19 11 NE 0,6 0 1,5
14.01.2021 10:00:00 -4,3 -4,9 -0,5 0,1 0,6 2,7 16 9 34 18 NNE 0,5 0 1,8
14.01.2021 09:00:00 -3,7 -4,2 -0,5 0,1 0,6 2,7 24 13 42 23 NNW 0,2 0 1,7
14.01.2021 08:00:00 -4,0 -4,6 -0,5 0,1 0,6 2,7 27 15 37 20 NNW 0,3 0 2,4
14.01.2021 07:00:00 -4,3 -5,2 -0,5 0,1 0,6 2,7 27 15 40 22 N 0,3 0 2,4
14.01.2021 06:00:00 -3,1 -4,1 -0,5 0,1 0,6 2,7 27 15 55 30 NNW 0,2 0 0,7
14.01.2021 05:00:00 -1,1 -1,4 -0,5 0,1 0,6 2,7 46 25 82 45 W 0,1 0 0,0
14.01.2021 04:00:00 -0,9 -1,1 -0,5 0,1 0,6 2,7 59 32 85 46 W 0,1 0 0,1
14.01.2021 03:00:00 -1,1 -1,4 -0,5 0,1 0,6 2,7 60 32 88 47 W 0,1 0 0,0
14.01.2021 02:00:00 -1,2 -1,5 -0,5 0,1 0,6 2,7 64 35 87 47 W 0,1 0 0,0
14.01.2021 01:00:00 -1,1 -1,4 -0,5 0,1 0,6 2,7 54 29 76 41 W 0,1 0 0,8
14.01.2021 00:00:00 -1,1 -1,4 -0,5 0,1 0,6 2,7 56 31 82 45 W 0,1 0 0,7
13.01.2021 23:00:00 -1,1 -1,3 -0,6 0,1 0,6 2,7 60 33 78 42 W 0,1 0 0,4
13.01.2021 22:00:00 -1,6 -1,9 -0,6 0,1 0,6 2,7 54 29 77 42 W 0,1 0 0,5
13.01.2021 21:00:00 -1,9 -2,2 -0,6 0,1 0,6 2,7 57 31 94 51 W 0,1 0 0,2
13.01.2021 20:00:00 -2,1 -2,2 -0,6 0,1 0,6 2,7 61 33 91 49 WSW 0,2 0 0,1
13.01.2021 19:00:00 -2,9 -3,0 -0,6 0,1 0,6 2,7 65 35 81 44 WSW 0,2 0 0,0
13.01.2021 18:00:00 -3,0 -3,3 -0,6 0,1 0,6 2,7 54 29 72 39 WSW 0,1 0 0,0
13.01.2021 17:00:00 -3,8 -4,3 -0,6 0,1 0,6 2,7 58 31 92 50 WSW 0,1 0 0,0
13.01.2021 16:00:00 -4,4 -5,1 -0,6 0,1 0,6 2,7 63 34 86 47 WSW 0,1 0 0,0
13.01.2021 15:00:00 -4,8 -5,5 -0,6 0,1 0,6 2,7 56 30 78 42 SW 0,1 0 0,0
13.01.2021 14:00:00 -5,6 -6,3 -0,6 0,1 0,6 2,7 52 28 72 39 SW 0,1 25 0,0
13.01.2021 13:00:00 -6,6 -7,8 -0,6 0,1 0,6 2,7 47 26 59 32 WSW 9 60 0,0
13.01.2021 12:00:00 -7,1 -8,3 -0,7 0,1 0,6 2,7 40 21 51 28 WSW 33 13 0,0
13.01.2021 11:00:00 -7,1 -8,3 -0,7 0,1 0,6 2,7 37 20 46 25 WSW 43 0 0,0
13.01.2021 10:00:00 -6,5 -7,4 -0,7 0,1 0,6 2,7 29 16 44 24 W 0,1 0 0,0
13.01.2021 09:00:00 -6,5 -7,4 -0,7 0,1 0,6 2,7 31 17 47 26 W 0,1 0 0,0
13.01.2021 08:00:00 -6,2 -7,0 -0,7 0,1 0,6 2,7 29 16 42 23 W 0,1 0 0,0
13.01.2021 07:00:00 -6,1 -6,6 -0,7 0,1 0,6 2,7 27 14 35 19 WNW 0,1 0 0,0
13.01.2021 06:00:00 -6,0 -6,3 -0,7 0,1 0,6 2,7 24 13 37 20 WNW - 0 0,0
13.01.2021 05:00:00 -5,9 -6,1 -0,7 0,1 0,6 2,7 22 12 35 19 WNW - 0 0,0
13.01.2021 04:00:00 -5,8 -6,0 -0,7 0,1 0,6 2,7 31 17 42 23 WNW 0,1 0 0,0
13.01.2021 03:00:00 -5,6 -5,6 -0,7 0,1 0,6 2,7 26 14 40 21 NW 0,1 0 0,0
13.01.2021 02:00:00 -5,5 -5,5 -0,8 0,1 0,6 2,7 27 15 48 26 NNW 0,1 0 0,0
13.01.2021 01:00:00 -4,7 -4,7 -0,8 0,1 0,6 2,7 31 17 51 28 NNW 0,1 0 0,3
13.01.2021 00:00:00 -3,5 - -0,8 0,1 0,6 2,7 34 18 54 29 NW 0,1 0 0,1
12.01.2021 23:00:00 -3,4 - -0,8 0,1 0,6 2,7 34 19 55 30 WNW - 0 0,1
12.01.2021 22:00:00 -3,5 - -0,8 0,1 0,6 2,7 39 21 61 33 W 0,1 0 0,0
12.01.2021 21:00:00 -3,6 - -0,8 0,1 0,6 2,7 40 21 71 39 W 0,2 0 0,0
12.01.2021 20:00:00 -4,2 - -0,8 0,1 0,6 2,7 48 26 78 42 W 0,1 0 0,1
12.01.2021 19:00:00 -4,4 -4,4 -0,8 0,1 0,6 2,7 66 36 79 43 WSW 0,2 0 0,1
12.01.2021 18:00:00 -4,4 -4,4 -0,8 0,1 0,6 2,7 61 33 82 44 WSW 0,2 0 0,1
12.01.2021 17:00:00 -4,4 -4,5 -0,8 0,1 0,6 2,7 68 37 88 47 SW 0,1 0 0,1
12.01.2021 16:00:00 -4,5 -4,9 -0,8 0,1 0,6 2,7 64 35 89 48 SW 0,2 0 0,0
12.01.2021 15:00:00 -4,5 -4,5 -0,9 0,1 0,6 2,7 66 36 91 49 SW 0,2 0 0,2
12.01.2021 14:00:00 -4,5 -4,5 -0,9 0,1 0,6 2,7 67 36 92 50 SW 0,2 0 0,3
12.01.2021 13:00:00 -4,5 -4,7 -0,9 0,1 0,6 2,7 65 35 94 51 SW 0,2 0 0,1
12.01.2021 12:00:00 -4,8 -5,2 -0,9 0,1 0,6 2,7 71 38 92 50 SW 0,1 0 0,2
12.01.2021 11:00:00 -5,6 -6,2 -0,9 0,1 0,6 2,7 64 35 93 50 SW 0,2 0 0,0
12.01.2021 10:00:00 -5,8 -6,6 -0,9 0,1 0,6 2,7 61 33 77 42 SW 0,1 0 0,0
12.01.2021 09:00:00 -5,9 -6,7 -0,9 0,1 0,6 2,7 61 33 85 46 SW 0,1 0 0,0
12.01.2021 08:00:00 -6,2 -7,1 -0,9 0,1 0,6 2,7 55 30 83 45 SW 0,1 0 0,0
12.01.2021 07:00:00 -5,9 -6,7 -0,9 0,1 0,6 2,7 54 29 80 43 WSW - 0 0,0
12.01.2021 06:00:00 -5,8 -6,6 -0,9 0,1 0,6 2,7 64 35 77 41 WSW - 0 0,0
12.01.2021 05:00:00 -6,9 -7,8 -0,9 0,1 0,6 2,7 44 24 63 34 WSW - 0 0,0
12.01.2021 04:00:00 -7,2 -7,9 -0,9 0,1 0,6 2,7 41 22 71 38 WSW - 0 0,0
12.01.2021 03:00:00 -9,1 -9,7 -0,9 0,1 0,6 2,7 32 17 53 28 SSW - 0 0,0
12.01.2021 02:00:00 -6,9 -8,6 -0,9 0,1 0,6 2,7 33 18 44 24 SW 55 0 0,0
12.01.2021 01:00:00 -4,6 -7,2 -0,9 0,1 0,6 2,7 35 19 42 23 WSW 75 0 0,0
12.01.2021 00:00:00 -4,3 -8,5 -0,9 0,1 0,6 2,7 30 16 38 20 WSW 75 0 0,0
11.01.2021 23:00:00 -4,8 -20,2 -0,9 0,1 0,6 2,7 24 13 28 15 W 75 0 0,0
11.01.2021 22:00:00 -4,0 -12,3 -0,9 0,1 0,6 2,7 18 10 22 12 WNW 70 0 0,0

tt = temperature
td = dewpoint
tt 5cm = temperature 5cm
tt -5cm = temperature -5cm
tt -20cm = temperature -20cm
tt -100cm = temperature -100cm
ff = wind speed
fx = gusts
dd = wind direction
vv = visibility
sd = sunshine duration
rr = precipitation

Next stations